sensor_id;sensor_type;location;lat;lon;timestamp;temperature;humidity
25092;DHT22;13082;52.374;4.946;2023-11-21T00:02:02;10.90;99.90
25092;DHT22;13082;52.374;4.946;2023-11-21T00:04:29;10.90;99.90
25092;DHT22;13082;52.374;4.946;2023-11-21T00:06:55;10.90;99.90
25092;DHT22;13082;52.374;4.946;2023-11-21T00:09:21;10.90;99.90
25092;DHT22;13082;52.374;4.946;2023-11-21T00:11:47;11.00;99.90
25092;DHT22;13082;52.374;4.946;2023-11-21T00:14:13;10.90;99.90
25092;DHT22;13082;52.374;4.946;2023-11-21T00:16:40;11.00;99.90
25092;DHT22;13082;52.374;4.946;2023-11-21T00:19:06;11.00;99.90
25092;DHT22;13082;52.374;4.946;2023-11-21T00:21:32;11.00;99.90
25092;DHT22;13082;52.374;4.946;2023-11-21T00:23:57;11.00;99.90
25092;DHT22;13082;52.374;4.946;2023-11-21T00:26:23;11.00;99.90
25092;DHT22;13082;52.374;4.946;2023-11-21T00:28:49;11.10;99.90
25092;DHT22;13082;52.374;4.946;2023-11-21T00:31:16;11.10;99.90
25092;DHT22;13082;52.374;4.946;2023-11-21T00:33:41;11.10;99.90
25092;DHT22;13082;52.374;4.946;2023-11-21T00:36:07;11.10;99.90
25092;DHT22;13082;52.374;4.946;2023-11-21T00:38:35;11.10;99.90
25092;DHT22;13082;52.374;4.946;2023-11-21T00:41:01;11.10;99.90
25092;DHT22;13082;52.374;4.946;2023-11-21T00:43:26;11.10;99.90
25092;DHT22;13082;52.374;4.946;2023-11-21T00:45:52;11.10;99.90
25092;DHT22;13082;52.374;4.946;2023-11-21T00:48:18;11.10;99.90
25092;DHT22;13082;52.374;4.946;2023-11-21T00:50:44;11.10;99.90
25092;DHT22;13082;52.374;4.946;2023-11-21T00:53:09;11.20;99.90
25092;DHT22;13082;52.374;4.946;2023-11-21T00:55:36;11.20;99.90
25092;DHT22;13082;52.374;4.946;2023-11-21T00:58:02;11.20;99.90
25092;DHT22;13082;52.374;4.946;2023-11-21T01:00:29;11.20;99.90
25092;DHT22;13082;52.374;4.946;2023-11-21T01:02:55;11.30;99.90
25092;DHT22;13082;52.374;4.946;2023-11-21T01:05:21;11.30;99.90
25092;DHT22;13082;52.374;4.946;2023-11-21T01:07:47;11.30;99.90
25092;DHT22;13082;52.374;4.946;2023-11-21T01:10:12;11.30;99.90
25092;DHT22;13082;52.374;4.946;2023-11-21T01:12:38;11.30;99.90
25092;DHT22;13082;52.374;4.946;2023-11-21T01:18:07;11.30;99.90
25092;DHT22;13082;52.374;4.946;2023-11-21T01:20:34;11.40;99.90
25092;DHT22;13082;52.374;4.946;2023-11-21T01:22:59;11.30;99.90
25092;DHT22;13082;52.374;4.946;2023-11-21T01:25:25;11.40;99.90
25092;DHT22;13082;52.374;4.946;2023-11-21T01:27:51;11.40;99.90
25092;DHT22;13082;52.374;4.946;2023-11-21T01:30:17;11.40;99.90
25092;DHT22;13082;52.374;4.946;2023-11-21T01:32:43;11.40;99.90
25092;DHT22;13082;52.374;4.946;2023-11-21T01:35:09;11.40;99.90
25092;DHT22;13082;52.374;4.946;2023-11-21T01:37:36;11.40;99.90
25092;DHT22;13082;52.374;4.946;2023-11-21T01:40:02;11.40;99.90
25092;DHT22;13082;52.374;4.946;2023-11-21T01:42:27;11.50;99.90
25092;DHT22;13082;52.374;4.946;2023-11-21T01:44:54;11.50;99.90
25092;DHT22;13082;52.374;4.946;2023-11-21T01:47:20;11.50;99.90
25092;DHT22;13082;52.374;4.946;2023-11-21T01:49:47;11.50;99.90
25092;DHT22;13082;52.374;4.946;2023-11-21T01:52:13;11.50;99.90
25092;DHT22;13082;52.374;4.946;2023-11-21T01:54:41;11.50;99.90
25092;DHT22;13082;52.374;4.946;2023-11-21T01:57:07;11.60;99.90
25092;DHT22;13082;52.374;4.946;2023-11-21T01:59:35;11.60;99.90
25092;DHT22;13082;52.374;4.946;2023-11-21T02:02:05;11.50;99.90
25092;DHT22;13082;52.374;4.946;2023-11-21T02:04:35;11.50;99.90
25092;DHT22;13082;52.374;4.946;2023-11-21T02:07:04;11.60;99.90
25092;DHT22;13082;52.374;4.946;2023-11-21T02:09:31;11.60;99.90
25092;DHT22;13082;52.374;4.946;2023-11-21T02:11:58;11.60;99.90
25092;DHT22;13082;52.374;4.946;2023-11-21T02:14:25;11.60;99.90
25092;DHT22;13082;52.374;4.946;2023-11-21T02:16:52;11.60;99.90
25092;DHT22;13082;52.374;4.946;2023-11-21T02:19:19;11.50;99.90
25092;DHT22;13082;52.374;4.946;2023-11-21T02:21:49;11.60;99.90
25092;DHT22;13082;52.374;4.946;2023-11-21T02:24:15;11.60;99.90
25092;DHT22;13082;52.374;4.946;2023-11-21T02:26:43;11.60;99.90
25092;DHT22;13082;52.374;4.946;2023-11-21T02:29:08;11.60;99.90
25092;DHT22;13082;52.374;4.946;2023-11-21T02:31:37;11.60;99.90
25092;DHT22;13082;52.374;4.946;2023-11-21T02:34:11;11.60;99.90
25092;DHT22;13082;52.374;4.946;2023-11-21T02:36:38;11.60;99.90
25092;DHT22;13082;52.374;4.946;2023-11-21T02:39:04;11.60;99.90
25092;DHT22;13082;52.374;4.946;2023-11-21T02:41:30;11.50;99.90
25092;DHT22;13082;52.374;4.946;2023-11-21T02:43:55;11.60;99.90
25092;DHT22;13082;52.374;4.946;2023-11-21T02:46:21;11.50;99.90
25092;DHT22;13082;52.374;4.946;2023-11-21T02:48:47;11.50;99.90
25092;DHT22;13082;52.374;4.946;2023-11-21T02:51:13;11.50;99.90
25092;DHT22;13082;52.374;4.946;2023-11-21T02:53:38;11.50;99.90
25092;DHT22;13082;52.374;4.946;2023-11-21T02:56:04;11.50;99.90
25092;DHT22;13082;52.374;4.946;2023-11-21T02:58:30;11.40;99.90
25092;DHT22;13082;52.374;4.946;2023-11-21T03:00:56;11.40;99.90
25092;DHT22;13082;52.374;4.946;2023-11-21T03:03:21;11.40;99.90
25092;DHT22;13082;52.374;4.946;2023-11-21T03:05:49;11.40;99.90
25092;DHT22;13082;52.374;4.946;2023-11-21T03:08:14;11.40;99.90
25092;DHT22;13082;52.374;4.946;2023-11-21T03:10:40;11.40;99.90
25092;DHT22;13082;52.374;4.946;2023-11-21T03:13:06;11.40;99.90
25092;DHT22;13082;52.374;4.946;2023-11-21T03:15:31;11.50;99.90
25092;DHT22;13082;52.374;4.946;2023-11-21T03:17:58;11.50;99.90
25092;DHT22;13082;52.374;4.946;2023-11-21T03:20:24;11.50;99.90
25092;DHT22;13082;52.374;4.946;2023-11-21T03:22:49;11.60;99.90
25092;DHT22;13082;52.374;4.946;2023-11-21T03:25:15;11.60;99.90
25092;DHT22;13082;52.374;4.946;2023-11-21T03:27:42;11.60;99.90
25092;DHT22;13082;52.374;4.946;2023-11-21T03:30:10;11.60;99.90
25092;DHT22;13082;52.374;4.946;2023-11-21T03:32:36;11.70;99.90
25092;DHT22;13082;52.374;4.946;2023-11-21T03:35:02;11.70;99.90
25092;DHT22;13082;52.374;4.946;2023-11-21T03:37:28;11.80;99.90
25092;DHT22;13082;52.374;4.946;2023-11-21T03:39:55;11.80;99.90
25092;DHT22;13082;52.374;4.946;2023-11-21T03:42:21;11.80;99.90
25092;DHT22;13082;52.374;4.946;2023-11-21T03:44:47;11.80;99.90
25092;DHT22;13082;52.374;4.946;2023-11-21T03:47:12;11.90;99.90
25092;DHT22;13082;52.374;4.946;2023-11-21T03:49:38;11.80;99.90
25092;DHT22;13082;52.374;4.946;2023-11-21T03:52:05;11.90;99.90
25092;DHT22;13082;52.374;4.946;2023-11-21T03:54:30;11.90;99.90
25092;DHT22;13082;52.374;4.946;2023-11-21T03:56:56;11.90;99.90
25092;DHT22;13082;52.374;4.946;2023-11-21T03:59:21;12.00;99.90
25092;DHT22;13082;52.374;4.946;2023-11-21T04:01:50;11.90;99.90
25092;DHT22;13082;52.374;4.946;2023-11-21T04:04:15;11.90;99.90
25092;DHT22;13082;52.374;4.946;2023-11-21T04:06:41;11.90;99.90
25092;DHT22;13082;52.374;4.946;2023-11-21T04:09:07;11.90;99.90
25092;DHT22;13082;52.374;4.946;2023-11-21T04:11:32;12.00;99.90
25092;DHT22;13082;52.374;4.946;2023-11-21T04:13:59;12.00;99.90
25092;DHT22;13082;52.374;4.946;2023-11-21T04:16:24;12.00;99.90
25092;DHT22;13082;52.374;4.946;2023-11-21T04:18:50;12.00;99.90
25092;DHT22;13082;52.374;4.946;2023-11-21T04:21:16;12.00;99.90
25092;DHT22;13082;52.374;4.946;2023-11-21T04:23:42;12.00;99.90
25092;DHT22;13082;52.374;4.946;2023-11-21T04:26:07;12.00;99.90
25092;DHT22;13082;52.374;4.946;2023-11-21T04:28:33;12.00;99.90
25092;DHT22;13082;52.374;4.946;2023-11-21T04:31:00;12.00;99.90
25092;DHT22;13082;52.374;4.946;2023-11-21T04:33:25;12.10;99.90
25092;DHT22;13082;52.374;4.946;2023-11-21T04:35:51;12.00;99.90
25092;DHT22;13082;52.374;4.946;2023-11-21T04:38:17;12.10;99.90
25092;DHT22;13082;52.374;4.946;2023-11-21T04:40:42;12.10;99.90
25092;DHT22;13082;52.374;4.946;2023-11-21T04:43:08;12.00;99.90
25092;DHT22;13082;52.374;4.946;2023-11-21T04:45:33;12.00;99.90
25092;DHT22;13082;52.374;4.946;2023-11-21T04:47:59;12.10;99.90
25092;DHT22;13082;52.374;4.946;2023-11-21T04:50:25;12.00;99.90
25092;DHT22;13082;52.374;4.946;2023-11-21T04:52:52;12.10;99.90
25092;DHT22;13082;52.374;4.946;2023-11-21T04:55:18;12.10;99.90
25092;DHT22;13082;52.374;4.946;2023-11-21T04:57:44;12.10;99.90
25092;DHT22;13082;52.374;4.946;2023-11-21T05:00:11;12.10;99.90
25092;DHT22;13082;52.374;4.946;2023-11-21T05:02:38;12.10;99.90
25092;DHT22;13082;52.374;4.946;2023-11-21T05:05:04;12.10;99.90
25092;DHT22;13082;52.374;4.946;2023-11-21T05:07:32;12.10;99.90
25092;DHT22;13082;52.374;4.946;2023-11-21T05:09:57;12.10;99.90
25092;DHT22;13082;52.374;4.946;2023-11-21T05:12:24;12.10;99.90
25092;DHT22;13082;52.374;4.946;2023-11-21T05:14:50;12.10;99.90
25092;DHT22;13082;52.374;4.946;2023-11-21T05:17:16;12.00;99.90
25092;DHT22;13082;52.374;4.946;2023-11-21T05:19:41;12.00;99.90
25092;DHT22;13082;52.374;4.946;2023-11-21T05:22:08;12.00;99.90
25092;DHT22;13082;52.374;4.946;2023-11-21T05:24:34;12.00;99.90
25092;DHT22;13082;52.374;4.946;2023-11-21T05:27:00;12.10;99.90
25092;DHT22;13082;52.374;4.946;2023-11-21T05:29:26;12.10;99.90
25092;DHT22;13082;52.374;4.946;2023-11-21T05:31:51;12.10;99.90
25092;DHT22;13082;52.374;4.946;2023-11-21T05:34:18;12.10;99.90
25092;DHT22;13082;52.374;4.946;2023-11-21T05:36:44;12.10;99.90
25092;DHT22;13082;52.374;4.946;2023-11-21T05:39:11;12.10;99.90
25092;DHT22;13082;52.374;4.946;2023-11-21T05:41:37;12.00;99.90
25092;DHT22;13082;52.374;4.946;2023-11-21T05:44:03;11.90;99.90
25092;DHT22;13082;52.374;4.946;2023-11-21T05:46:28;11.90;99.90
25092;DHT22;13082;52.374;4.946;2023-11-21T05:48:54;11.90;99.90
25092;DHT22;13082;52.374;4.946;2023-11-21T05:51:20;11.90;99.90
25092;DHT22;13082;52.374;4.946;2023-11-21T05:53:45;11.90;99.90
25092;DHT22;13082;52.374;4.946;2023-11-21T05:56:12;11.90;99.90
25092;DHT22;13082;52.374;4.946;2023-11-21T05:58:39;11.90;99.90
25092;DHT22;13082;52.374;4.946;2023-11-21T06:01:05;11.90;99.90
25092;DHT22;13082;52.374;4.946;2023-11-21T06:03:35;11.90;99.90
25092;DHT22;13082;52.374;4.946;2023-11-21T06:06:00;11.80;99.90
25092;DHT22;13082;52.374;4.946;2023-11-21T06:08:26;11.80;99.90
25092;DHT22;13082;52.374;4.946;2023-11-21T06:10:52;11.80;99.90
25092;DHT22;13082;52.374;4.946;2023-11-21T06:13:17;11.70;99.90
25092;DHT22;13082;52.374;4.946;2023-11-21T06:15:50;11.60;99.90
25092;DHT22;13082;52.374;4.946;2023-11-21T06:18:15;11.70;99.90
25092;DHT22;13082;52.374;4.946;2023-11-21T06:20:41;11.70;99.90
25092;DHT22;13082;52.374;4.946;2023-11-21T06:23:07;11.70;99.90
25092;DHT22;13082;52.374;4.946;2023-11-21T06:25:32;11.70;99.90
25092;DHT22;13082;52.374;4.946;2023-11-21T06:28:01;11.70;99.90
25092;DHT22;13082;52.374;4.946;2023-11-21T06:30:27;11.70;99.90
25092;DHT22;13082;52.374;4.946;2023-11-21T06:32:54;11.70;99.90
25092;DHT22;13082;52.374;4.946;2023-11-21T06:35:20;11.70;99.90
25092;DHT22;13082;52.374;4.946;2023-11-21T06:37:46;11.70;99.90
25092;DHT22;13082;52.374;4.946;2023-11-21T06:40:13;11.70;99.90
25092;DHT22;13082;52.374;4.946;2023-11-21T06:42:41;11.70;99.90
25092;DHT22;13082;52.374;4.946;2023-11-21T06:45:07;11.70;99.90
25092;DHT22;13082;52.374;4.946;2023-11-21T06:47:33;11.70;99.90
25092;DHT22;13082;52.374;4.946;2023-11-21T06:49:59;11.70;99.90
25092;DHT22;13082;52.374;4.946;2023-11-21T06:52:25;11.70;99.90
25092;DHT22;13082;52.374;4.946;2023-11-21T06:54:51;11.80;99.90
25092;DHT22;13082;52.374;4.946;2023-11-21T06:57:17;11.80;99.90
25092;DHT22;13082;52.374;4.946;2023-11-21T06:59:43;11.80;99.90
25092;DHT22;13082;52.374;4.946;2023-11-21T07:02:09;11.80;99.90
25092;DHT22;13082;52.374;4.946;2023-11-21T07:04:35;11.80;99.90
25092;DHT22;13082;52.374;4.946;2023-11-21T07:07:02;11.90;99.90
25092;DHT22;13082;52.374;4.946;2023-11-21T07:09:28;11.80;99.90
25092;DHT22;13082;52.374;4.946;2023-11-21T07:11:54;11.80;99.90
25092;DHT22;13082;52.374;4.946;2023-11-21T07:14:21;11.90;99.90
25092;DHT22;13082;52.374;4.946;2023-11-21T07:16:46;11.80;99.90
25092;DHT22;13082;52.374;4.946;2023-11-21T07:19:12;11.80;99.90
25092;DHT22;13082;52.374;4.946;2023-11-21T07:21:39;11.80;99.90
25092;DHT22;13082;52.374;4.946;2023-11-21T07:24:05;11.90;99.90
25092;DHT22;13082;52.374;4.946;2023-11-21T07:26:35;11.80;99.90
25092;DHT22;13082;52.374;4.946;2023-11-21T07:29:01;11.80;99.90
25092;DHT22;13082;52.374;4.946;2023-11-21T07:31:28;11.80;99.90
25092;DHT22;13082;52.374;4.946;2023-11-21T07:33:54;11.80;99.90
25092;DHT22;13082;52.374;4.946;2023-11-21T07:36:23;11.80;99.90
25092;DHT22;13082;52.374;4.946;2023-11-21T07:38:49;11.80;99.90
25092;DHT22;13082;52.374;4.946;2023-11-21T07:41:15;11.80;99.90
25092;DHT22;13082;52.374;4.946;2023-11-21T07:43:44;11.80;99.90
25092;DHT22;13082;52.374;4.946;2023-11-21T07:46:10;11.70;99.90
25092;DHT22;13082;52.374;4.946;2023-11-21T07:48:38;11.80;99.90
25092;DHT22;13082;52.374;4.946;2023-11-21T07:51:04;11.80;99.90
25092;DHT22;13082;52.374;4.946;2023-11-21T07:53:29;11.80;99.90
25092;DHT22;13082;52.374;4.946;2023-11-21T07:55:55;11.80;99.90
25092;DHT22;13082;52.374;4.946;2023-11-21T07:58:21;11.80;99.90
25092;DHT22;13082;52.374;4.946;2023-11-21T08:00:47;11.80;99.90
25092;DHT22;13082;52.374;4.946;2023-11-21T08:03:13;11.80;99.90
25092;DHT22;13082;52.374;4.946;2023-11-21T08:05:39;11.80;99.90
25092;DHT22;13082;52.374;4.946;2023-11-21T08:08:05;11.80;99.90
25092;DHT22;13082;52.374;4.946;2023-11-21T08:10:31;11.80;99.90
25092;DHT22;13082;52.374;4.946;2023-11-21T08:12:57;11.80;99.90
25092;DHT22;13082;52.374;4.946;2023-11-21T08:15:22;11.70;99.90
25092;DHT22;13082;52.374;4.946;2023-11-21T08:17:48;11.70;99.90
25092;DHT22;13082;52.374;4.946;2023-11-21T08:20:14;11.70;99.90
25092;DHT22;13082;52.374;4.946;2023-11-21T08:22:44;11.80;99.90
25092;DHT22;13082;52.374;4.946;2023-11-21T08:25:10;11.70;99.90
25092;DHT22;13082;52.374;4.946;2023-11-21T08:27:36;11.70;99.90
25092;DHT22;13082;52.374;4.946;2023-11-21T08:30:03;11.70;99.90
25092;DHT22;13082;52.374;4.946;2023-11-21T08:32:29;11.80;99.90
25092;DHT22;13082;52.374;4.946;2023-11-21T08:34:57;11.70;99.90
25092;DHT22;13082;52.374;4.946;2023-11-21T08:37:23;11.70;99.90
25092;DHT22;13082;52.374;4.946;2023-11-21T08:39:49;11.80;99.90
25092;DHT22;13082;52.374;4.946;2023-11-21T08:42:15;11.70;99.90
25092;DHT22;13082;52.374;4.946;2023-11-21T08:44:40;11.70;99.90
25092;DHT22;13082;52.374;4.946;2023-11-21T08:47:06;11.70;99.90
25092;DHT22;13082;52.374;4.946;2023-11-21T08:49:32;11.70;99.90
25092;DHT22;13082;52.374;4.946;2023-11-21T08:51:58;11.70;99.90
25092;DHT22;13082;52.374;4.946;2023-11-21T08:54:28;11.60;99.90
25092;DHT22;13082;52.374;4.946;2023-11-21T08:56:54;11.60;99.90
25092;DHT22;13082;52.374;4.946;2023-11-21T08:59:20;11.60;99.90
25092;DHT22;13082;52.374;4.946;2023-11-21T09:01:47;11.60;99.90
25092;DHT22;13082;52.374;4.946;2023-11-21T09:04:12;11.60;99.90
25092;DHT22;13082;52.374;4.946;2023-11-21T09:06:39;11.60;99.90
25092;DHT22;13082;52.374;4.946;2023-11-21T09:09:05;11.60;99.90
25092;DHT22;13082;52.374;4.946;2023-11-21T09:11:32;11.60;99.90
25092;DHT22;13082;52.374;4.946;2023-11-21T09:13:59;11.60;99.90
25092;DHT22;13082;52.374;4.946;2023-11-21T09:16:25;11.60;99.90
25092;DHT22;13082;52.374;4.946;2023-11-21T09:18:51;11.60;99.90
25092;DHT22;13082;52.374;4.946;2023-11-21T09:21:16;11.50;99.90
25092;DHT22;13082;52.374;4.946;2023-11-21T09:23:44;11.50;99.90
25092;DHT22;13082;52.374;4.946;2023-11-21T09:26:10;11.50;99.90
25092;DHT22;13082;52.374;4.946;2023-11-21T09:28:36;11.50;99.90
25092;DHT22;13082;52.374;4.946;2023-11-21T09:31:06;11.50;99.90
25092;DHT22;13082;52.374;4.946;2023-11-21T09:33:34;11.50;99.90
25092;DHT22;13082;52.374;4.946;2023-11-21T09:36:00;11.50;99.90
25092;DHT22;13082;52.374;4.946;2023-11-21T09:38:26;11.40;99.90
25092;DHT22;13082;52.374;4.946;2023-11-21T09:40:54;11.40;99.90
25092;DHT22;13082;52.374;4.946;2023-11-21T09:43:20;11.50;99.90
25092;DHT22;13082;52.374;4.946;2023-11-21T09:45:53;11.50;99.90
25092;DHT22;13082;52.374;4.946;2023-11-21T09:48:20;11.50;99.90
25092;DHT22;13082;52.374;4.946;2023-11-21T09:50:47;11.50;99.90
25092;DHT22;13082;52.374;4.946;2023-11-21T09:53:22;11.50;99.90
25092;DHT22;13082;52.374;4.946;2023-11-21T09:55:51;11.50;99.90
25092;DHT22;13082;52.374;4.946;2023-11-21T09:58:18;11.50;99.90
25092;DHT22;13082;52.374;4.946;2023-11-21T10:00:46;11.50;99.90
25092;DHT22;13082;52.374;4.946;2023-11-21T10:03:12;11.50;99.90
25092;DHT22;13082;52.374;4.946;2023-11-21T10:05:39;11.50;99.90
25092;DHT22;13082;52.374;4.946;2023-11-21T10:08:08;11.50;99.90
25092;DHT22;13082;52.374;4.946;2023-11-21T10:10:35;11.50;99.90
25092;DHT22;13082;52.374;4.946;2023-11-21T10:13:04;11.60;99.90
25092;DHT22;13082;52.374;4.946;2023-11-21T10:15:36;11.60;99.90
25092;DHT22;13082;52.374;4.946;2023-11-21T10:18:03;11.60;99.90
25092;DHT22;13082;52.374;4.946;2023-11-21T10:20:30;11.60;99.90
25092;DHT22;13082;52.374;4.946;2023-11-21T10:22:57;11.50;99.90
25092;DHT22;13082;52.374;4.946;2023-11-21T10:25:23;11.60;99.90
25092;DHT22;13082;52.374;4.946;2023-11-21T10:27:49;11.50;99.90
25092;DHT22;13082;52.374;4.946;2023-11-21T10:30:17;11.50;99.90
25092;DHT22;13082;52.374;4.946;2023-11-21T10:32:44;11.50;99.90
25092;DHT22;13082;52.374;4.946;2023-11-21T10:35:10;11.50;99.90
25092;DHT22;13082;52.374;4.946;2023-11-21T10:37:37;11.50;99.90
25092;DHT22;13082;52.374;4.946;2023-11-21T10:40:09;11.50;99.90
25092;DHT22;13082;52.374;4.946;2023-11-21T10:42:38;11.50;99.90
25092;DHT22;13082;52.374;4.946;2023-11-21T10:45:05;11.50;99.90
25092;DHT22;13082;52.374;4.946;2023-11-21T10:47:39;11.50;99.90
25092;DHT22;13082;52.374;4.946;2023-11-21T10:50:05;11.50;99.90
25092;DHT22;13082;52.374;4.946;2023-11-21T10:52:31;11.50;99.90
25092;DHT22;13082;52.374;4.946;2023-11-21T10:54:56;11.40;99.90
25092;DHT22;13082;52.374;4.946;2023-11-21T10:57:25;11.40;99.90
25092;DHT22;13082;52.374;4.946;2023-11-21T10:59:53;11.40;99.90
25092;DHT22;13082;52.374;4.946;2023-11-21T11:02:25;11.40;99.90
25092;DHT22;13082;52.374;4.946;2023-11-21T11:04:58;11.40;99.90
25092;DHT22;13082;52.374;4.946;2023-11-21T11:07:27;11.40;99.90
25092;DHT22;13082;52.374;4.946;2023-11-21T11:09:55;11.40;99.90
25092;DHT22;13082;52.374;4.946;2023-11-21T11:12:24;11.40;99.90
25092;DHT22;13082;52.374;4.946;2023-11-21T11:14:51;11.40;99.90
25092;DHT22;13082;52.374;4.946;2023-11-21T11:17:19;11.40;99.90
25092;DHT22;13082;52.374;4.946;2023-11-21T11:19:46;11.40;99.90
25092;DHT22;13082;52.374;4.946;2023-11-21T11:24:58;11.40;99.90
25092;DHT22;13082;52.374;4.946;2023-11-21T11:27:34;11.40;99.90
25092;DHT22;13082;52.374;4.946;2023-11-21T11:30:21;11.40;99.90
25092;DHT22;13082;52.374;4.946;2023-11-21T11:36:02;11.40;99.90
25092;DHT22;13082;52.374;4.946;2023-11-21T11:38:33;11.40;99.90
25092;DHT22;13082;52.374;4.946;2023-11-21T11:41:05;11.40;99.90
25092;DHT22;13082;52.374;4.946;2023-11-21T11:43:31;11.30;99.90
25092;DHT22;13082;52.374;4.946;2023-11-21T11:46:10;11.40;99.90
25092;DHT22;13082;52.374;4.946;2023-11-21T11:48:39;11.40;99.90
25092;DHT22;13082;52.374;4.946;2023-11-21T11:51:10;11.40;99.90
25092;DHT22;13082;52.374;4.946;2023-11-21T11:53:41;11.40;99.90
25092;DHT22;13082;52.374;4.946;2023-11-21T11:58:48;11.40;99.90
25092;DHT22;13082;52.374;4.946;2023-11-21T12:01:18;11.40;99.90
25092;DHT22;13082;52.374;4.946;2023-11-21T12:03:44;11.30;99.90
25092;DHT22;13082;52.374;4.946;2023-11-21T12:06:10;11.40;99.90
25092;DHT22;13082;52.374;4.946;2023-11-21T12:08:37;11.40;99.90
25092;DHT22;13082;52.374;4.946;2023-11-21T12:11:04;11.40;99.90
25092;DHT22;13082;52.374;4.946;2023-11-21T12:13:30;11.40;99.90
25092;DHT22;13082;52.374;4.946;2023-11-21T12:15:55;11.30;99.90
25092;DHT22;13082;52.374;4.946;2023-11-21T12:18:21;11.30;99.90
25092;DHT22;13082;52.374;4.946;2023-11-21T12:20:47;11.30;99.90
25092;DHT22;13082;52.374;4.946;2023-11-21T12:23:15;11.20;99.90
25092;DHT22;13082;52.374;4.946;2023-11-21T12:25:42;11.20;99.90
25092;DHT22;13082;52.374;4.946;2023-11-21T12:28:08;11.10;99.90
25092;DHT22;13082;52.374;4.946;2023-11-21T12:30:35;11.10;99.90
25092;DHT22;13082;52.374;4.946;2023-11-21T12:33:02;11.10;99.90
25092;DHT22;13082;52.374;4.946;2023-11-21T12:35:30;11.10;99.90
25092;DHT22;13082;52.374;4.946;2023-11-21T12:37:56;11.10;99.90
25092;DHT22;13082;52.374;4.946;2023-11-21T12:40:25;11.10;99.90
25092;DHT22;13082;52.374;4.946;2023-11-21T12:42:56;11.10;99.90
25092;DHT22;13082;52.374;4.946;2023-11-21T12:45:24;11.00;99.90
25092;DHT22;13082;52.374;4.946;2023-11-21T12:47:57;11.10;99.90
25092;DHT22;13082;52.374;4.946;2023-11-21T12:50:26;11.10;99.90
25092;DHT22;13082;52.374;4.946;2023-11-21T12:55:31;11.20;99.90
25092;DHT22;13082;52.374;4.946;2023-11-21T12:58:01;11.20;99.90
25092;DHT22;13082;52.374;4.946;2023-11-21T13:00:47;11.20;99.90
25092;DHT22;13082;52.374;4.946;2023-11-21T13:03:15;11.10;99.90
25092;DHT22;13082;52.374;4.946;2023-11-21T13:05:51;11.10;99.90
25092;DHT22;13082;52.374;4.946;2023-11-21T13:08:19;11.10;99.90
25092;DHT22;13082;52.374;4.946;2023-11-21T13:10:50;11.10;99.90
25092;DHT22;13082;52.374;4.946;2023-11-21T13:13:16;11.10;99.90
25092;DHT22;13082;52.374;4.946;2023-11-21T13:16:02;11.10;99.90
25092;DHT22;13082;52.374;4.946;2023-11-21T13:18:31;11.10;99.90
25092;DHT22;13082;52.374;4.946;2023-11-21T13:20:59;11.10;99.90
25092;DHT22;13082;52.374;4.946;2023-11-21T13:23:25;11.10;99.90
25092;DHT22;13082;52.374;4.946;2023-11-21T13:25:52;11.10;99.90
25092;DHT22;13082;52.374;4.946;2023-11-21T13:28:18;11.10;99.90
25092;DHT22;13082;52.374;4.946;2023-11-21T13:30:46;11.10;99.90
25092;DHT22;13082;52.374;4.946;2023-11-21T13:33:12;11.00;99.90
25092;DHT22;13082;52.374;4.946;2023-11-21T13:35:43;11.10;99.90
25092;DHT22;13082;52.374;4.946;2023-11-21T13:38:17;11.10;99.90
25092;DHT22;13082;52.374;4.946;2023-11-21T13:40:51;11.10;99.90
25092;DHT22;13082;52.374;4.946;2023-11-21T13:43:20;11.10;99.90
25092;DHT22;13082;52.374;4.946;2023-11-21T13:45:48;11.00;99.90
25092;DHT22;13082;52.374;4.946;2023-11-21T13:48:23;11.00;99.90
25092;DHT22;13082;52.374;4.946;2023-11-21T13:50:51;11.00;99.90
25092;DHT22;13082;52.374;4.946;2023-11-21T13:53:34;10.90;99.90
25092;DHT22;13082;52.374;4.946;2023-11-21T13:56:03;10.90;99.90
25092;DHT22;13082;52.374;4.946;2023-11-21T13:58:28;10.90;99.90
25092;DHT22;13082;52.374;4.946;2023-11-21T14:01:10;10.90;99.90
25092;DHT22;13082;52.374;4.946;2023-11-21T14:04:00;10.90;99.90
25092;DHT22;13082;52.374;4.946;2023-11-21T14:06:42;11.00;99.90
25092;DHT22;13082;52.374;4.946;2023-11-21T14:09:21;10.90;99.90
25092;DHT22;13082;52.374;4.946;2023-11-21T14:11:57;11.00;99.90
25092;DHT22;13082;52.374;4.946;2023-11-21T14:14:26;11.00;99.90
25092;DHT22;13082;52.374;4.946;2023-11-21T14:16:53;10.90;99.90
25092;DHT22;13082;52.374;4.946;2023-11-21T14:19:21;10.90;99.90
25092;DHT22;13082;52.374;4.946;2023-11-21T14:21:47;11.00;99.90
25092;DHT22;13082;52.374;4.946;2023-11-21T14:24:16;10.90;99.90
25092;DHT22;13082;52.374;4.946;2023-11-21T14:26:46;10.90;99.90
25092;DHT22;13082;52.374;4.946;2023-11-21T14:29:12;10.90;99.90
25092;DHT22;13082;52.374;4.946;2023-11-21T14:31:40;10.90;99.90
25092;DHT22;13082;52.374;4.946;2023-11-21T14:34:09;10.80;99.90
25092;DHT22;13082;52.374;4.946;2023-11-21T14:36:36;10.80;99.90
25092;DHT22;13082;52.374;4.946;2023-11-21T14:39:05;10.80;99.90
25092;DHT22;13082;52.374;4.946;2023-11-21T14:41:41;10.80;99.90
25092;DHT22;13082;52.374;4.946;2023-11-21T14:44:08;10.80;99.90
25092;DHT22;13082;52.374;4.946;2023-11-21T14:46:37;10.80;99.90
25092;DHT22;13082;52.374;4.946;2023-11-21T14:49:05;10.70;99.90
25092;DHT22;13082;52.374;4.946;2023-11-21T14:51:48;10.70;99.90
25092;DHT22;13082;52.374;4.946;2023-11-21T14:54:32;10.70;99.90
25092;DHT22;13082;52.374;4.946;2023-11-21T14:57:12;10.70;99.90
25092;DHT22;13082;52.374;4.946;2023-11-21T14:59:48;10.60;99.90
25092;DHT22;13082;52.374;4.946;2023-11-21T15:02:23;10.60;99.90
25092;DHT22;13082;52.374;4.946;2023-11-21T15:05:09;10.60;99.90
25092;DHT22;13082;52.374;4.946;2023-11-21T15:07:40;10.60;99.90
25092;DHT22;13082;52.374;4.946;2023-11-21T15:10:06;10.60;99.90
25092;DHT22;13082;52.374;4.946;2023-11-21T15:12:36;10.60;99.90
25092;DHT22;13082;52.374;4.946;2023-11-21T15:15:04;10.60;99.90
25092;DHT22;13082;52.374;4.946;2023-11-21T15:17:33;10.60;99.90
25092;DHT22;13082;52.374;4.946;2023-11-21T15:19:59;10.60;99.90
25092;DHT22;13082;52.374;4.946;2023-11-21T15:22:25;10.60;99.90
25092;DHT22;13082;52.374;4.946;2023-11-21T15:24:53;10.60;99.90
25092;DHT22;13082;52.374;4.946;2023-11-21T15:27:19;10.50;99.90
25092;DHT22;13082;52.374;4.946;2023-11-21T15:29:45;10.50;99.90
25092;DHT22;13082;52.374;4.946;2023-11-21T15:32:11;10.50;99.90
25092;DHT22;13082;52.374;4.946;2023-11-21T15:34:38;10.50;99.90
25092;DHT22;13082;52.374;4.946;2023-11-21T15:37:05;10.50;99.90
25092;DHT22;13082;52.374;4.946;2023-11-21T15:39:36;10.50;99.90
25092;DHT22;13082;52.374;4.946;2023-11-21T15:42:02;10.50;99.90
25092;DHT22;13082;52.374;4.946;2023-11-21T15:44:29;10.50;99.90
25092;DHT22;13082;52.374;4.946;2023-11-21T15:46:57;10.50;99.90